createdAt,value
2018-11-29T00:01:01.754Z,10.43
2018-11-29T00:02:05.973Z,10.30
2018-11-29T00:03:10.933Z,10.35
2018-11-29T00:04:15.053Z,10.73
2018-11-29T00:05:19.226Z,10.07
2018-11-29T00:06:23.278Z,10.13
2018-11-29T00:07:27.307Z,10.53
2018-11-29T00:08:31.428Z,11.10
2018-11-29T00:09:38.624Z,10.75
2018-11-29T00:10:42.760Z,10.05
2018-11-29T00:11:46.913Z,10.03
2018-11-29T00:12:51.040Z,10.10
2018-11-29T00:13:55.169Z,9.95
2018-11-29T00:14:59.249Z,10.83
2018-11-29T00:16:03.395Z,10.33
2018-11-29T00:17:07.528Z,10.82
2018-11-29T00:18:11.659Z,10.20
2018-11-29T00:19:15.803Z,10.47
2018-11-29T00:20:20.642Z,10.13
2018-11-29T00:21:24.757Z,9.77
2018-11-29T00:22:28.862Z,9.97
2018-11-29T00:23:32.999Z,10.10
2018-11-29T00:24:37.138Z,9.85
2018-11-29T00:25:41.165Z,9.87
2018-11-29T00:26:45.264Z,9.83
2018-11-29T00:27:49.448Z,9.80
2018-11-29T00:28:53.455Z,10.40
2018-11-29T00:29:57.690Z,8.87
2018-11-29T00:31:01.835Z,10.10
2018-11-29T00:32:06.118Z,9.58
2018-11-29T00:33:10.233Z,9.20
2018-11-29T00:34:14.370Z,9.40
2018-11-29T00:35:18.552Z,9.75
2018-11-29T00:36:22.654Z,8.70
2018-11-29T00:37:26.790Z,9.53
2018-11-29T00:38:30.909Z,9.25
2018-11-29T00:39:35.071Z,9.65
2018-11-29T00:40:39.236Z,10.35
2018-11-29T00:41:43.398Z,10.58
2018-11-29T00:42:47.474Z,9.63
2018-11-29T00:43:51.509Z,9.40
2018-11-29T00:44:55.656Z,9.13
2018-11-29T00:45:59.739Z,9.60
2018-11-29T00:47:03.843Z,9.20
2018-11-29T00:48:08.021Z,9.13
2018-11-29T00:49:12.167Z,9.30
2018-11-29T00:50:16.919Z,9.37
2018-11-29T00:51:21.020Z,8.65
2018-11-29T00:52:25.170Z,9.30
2018-11-29T00:53:29.231Z,9.80
2018-11-29T00:54:33.759Z,10.03
2018-11-29T00:55:37.854Z,9.70
2018-11-29T00:56:42.067Z,9.20
2018-11-29T00:57:46.417Z,9.78
2018-11-29T00:58:50.539Z,8.95
2018-11-29T00:59:54.730Z,8.35
2018-11-29T01:00:58.915Z,8.70
2018-11-29T01:02:03.056Z,9.30
2018-11-29T01:03:07.178Z,8.97
2018-11-29T01:04:11.331Z,9.58
2018-11-29T01:05:15.492Z,9.40
2018-11-29T01:06:19.604Z,8.93
2018-11-29T01:07:23.738Z,8.70
2018-11-29T01:08:27.854Z,8.40
2018-11-29T01:09:31.965Z,8.97
2018-11-29T01:10:36.103Z,9.50
2018-11-29T01:11:40.201Z,9.35
2018-11-29T01:12:44.702Z,8.87
2018-11-29T01:13:48.802Z,9.27
2018-11-29T01:14:53.024Z,8.77
2018-11-29T01:15:57.192Z,8.95
2018-11-29T01:17:01.300Z,8.28
2018-11-29T01:18:05.693Z,9.30
2018-11-29T01:19:09.774Z,8.50
2018-11-29T01:20:14.858Z,9.15
2018-11-29T01:21:18.952Z,9.43
2018-11-29T01:22:23.498Z,9.30
2018-11-29T01:23:27.523Z,9.58
2018-11-29T01:24:31.612Z,8.80
2018-11-29T01:25:35.746Z,8.78
2018-11-29T01:26:39.979Z,9.37
2018-11-29T01:27:45.235Z,8.50
2018-11-29T01:28:49.427Z,8.08
2018-11-29T01:29:53.500Z,8.15
2018-11-29T01:30:57.573Z,8.37
2018-11-29T01:32:01.771Z,8.53
2018-11-29T01:33:05.816Z,8.03
2018-11-29T01:34:09.961Z,9.00
2018-11-29T01:35:15.922Z,7.87
2018-11-29T01:36:19.924Z,8.77
2018-11-29T01:37:24.077Z,8.03
2018-11-29T01:38:28.248Z,8.33
2018-11-29T01:39:32.324Z,9.10
2018-11-29T01:40:36.491Z,9.45
2018-11-29T01:41:40.637Z,7.72
2018-11-29T01:42:50.779Z,8.88
2018-11-29T01:43:54.868Z,9.18
2018-11-29T01:44:58.956Z,9.25
2018-11-29T01:46:03.052Z,8.70
2018-11-29T01:47:07.255Z,8.40
2018-11-29T01:48:11.430Z,8.95
2018-11-29T01:49:15.514Z,9.17
2018-11-29T01:50:19.660Z,8.50
2018-11-29T01:51:23.813Z,8.57
2018-11-29T01:52:27.947Z,8.73
2018-11-29T01:53:32.067Z,8.50
2018-11-29T01:54:36.281Z,9.23
2018-11-29T01:55:40.389Z,9.17
2018-11-29T01:56:44.492Z,9.15
2018-11-29T01:57:48.549Z,8.50
2018-11-29T01:58:52.716Z,9.13
2018-11-29T01:59:56.774Z,9.13
2018-11-29T02:01:00.870Z,8.97
2018-11-29T02:02:05.067Z,9.23
2018-11-29T02:03:09.279Z,8.80
2018-11-29T02:04:13.372Z,9.10
2018-11-29T02:05:17.492Z,8.75
2018-11-29T02:06:21.728Z,8.28
2018-11-29T02:07:26.035Z,9.38
2018-11-29T02:08:30.155Z,9.48
2018-11-29T02:09:34.222Z,9.25
2018-11-29T02:10:43.710Z,9.43
2018-11-29T02:11:47.797Z,9.25
2018-11-29T02:12:51.881Z,8.30
2018-11-29T02:13:55.979Z,8.33
2018-11-29T02:15:00.149Z,9.25
2018-11-29T02:16:04.209Z,8.93
2018-11-29T02:17:08.388Z,8.80
2018-11-29T02:18:12.514Z,8.47
2018-11-29T02:19:16.590Z,9.33
2018-11-29T02:20:20.811Z,8.93
2018-11-29T02:21:24.967Z,8.73
2018-11-29T02:22:29.117Z,9.23
2018-11-29T02:23:33.206Z,9.55
2018-11-29T02:24:37.356Z,8.85
2018-11-29T02:25:41.573Z,9.30
2018-11-29T02:26:45.656Z,8.43
2018-11-29T02:27:49.766Z,8.98
2018-11-29T02:28:53.959Z,8.98
2018-11-29T02:29:58.081Z,9.43
2018-11-29T02:31:02.199Z,9.35
2018-11-29T02:32:06.340Z,8.70
2018-11-29T02:33:10.449Z,9.15
2018-11-29T02:34:14.550Z,8.40
2018-11-29T02:35:18.619Z,9.13
2018-11-29T02:36:22.704Z,8.65
2018-11-29T02:37:26.926Z,9.25
2018-11-29T02:38:31.066Z,9.27
2018-11-29T02:39:35.090Z,8.38
2018-11-29T02:40:39.146Z,7.60
2018-11-29T02:41:43.251Z,8.90
2018-11-29T02:42:48.522Z,8.48
2018-11-29T02:43:52.558Z,8.70
2018-11-29T02:44:56.638Z,9.23
2018-11-29T02:46:00.706Z,9.50
2018-11-29T02:47:04.907Z,9.47
2018-11-29T02:48:09.158Z,8.80
2018-11-29T02:49:13.346Z,9.17
2018-11-29T02:50:23.502Z,9.65
2018-11-29T02:51:34.796Z,9.08
2018-11-29T02:52:45.120Z,8.70
2018-11-29T02:53:49.257Z,9.53
2018-11-29T02:54:53.430Z,9.20
2018-11-29T02:55:57.493Z,9.73
2018-11-29T02:57:01.736Z,8.50
2018-11-29T02:58:05.835Z,9.45
2018-11-29T02:59:10.200Z,9.27
2018-11-29T03:00:17.810Z,9.23
2018-11-29T03:01:21.901Z,9.10
2018-11-29T03:02:25.985Z,9.23
2018-11-29T03:03:30.115Z,9.33
2018-11-29T03:04:34.171Z,9.28
2018-11-29T03:05:38.340Z,8.43
2018-11-29T03:06:42.512Z,9.88
2018-11-29T03:07:46.683Z,9.55
2018-11-29T03:08:50.777Z,8.88
2018-11-29T03:09:54.856Z,9.20
2018-11-29T03:10:58.998Z,8.98
2018-11-29T03:12:03.161Z,9.15
2018-11-29T03:13:07.322Z,8.75
2018-11-29T03:14:11.403Z,8.70
2018-11-29T03:15:18.705Z,9.85
2018-11-29T03:16:22.822Z,9.47
2018-11-29T03:17:26.946Z,8.83
2018-11-29T03:18:31.120Z,9.23
2018-11-29T03:19:35.219Z,9.13
2018-11-29T03:20:39.375Z,9.03
2018-11-29T03:21:43.475Z,9.40
2018-11-29T03:22:47.575Z,9.53
2018-11-29T03:23:51.684Z,8.80
2018-11-29T03:24:55.731Z,9.60
2018-11-29T03:25:59.799Z,9.57
2018-11-29T03:27:03.901Z,9.20
2018-11-29T03:28:08.300Z,9.07
2018-11-29T03:29:12.418Z,8.73
2018-11-29T03:30:17.839Z,8.07
2018-11-29T03:31:21.871Z,8.68
2018-11-29T03:32:25.898Z,7.90
2018-11-29T03:33:29.975Z,8.18
2018-11-29T03:34:34.098Z,9.08
2018-11-29T03:35:38.228Z,8.80
2018-11-29T03:36:42.418Z,9.05
2018-11-29T03:37:46.523Z,8.35
2018-11-29T03:38:50.725Z,8.97
2018-11-29T03:39:54.770Z,9.07
2018-11-29T03:40:58.847Z,8.80
2018-11-29T03:42:03.939Z,8.63
2018-11-29T03:43:08.089Z,8.40
2018-11-29T03:44:12.187Z,8.73
2018-11-29T03:45:16.776Z,8.30
2018-11-29T03:46:20.832Z,8.33
2018-11-29T03:47:24.982Z,8.47
2018-11-29T03:48:28.965Z,8.17
2018-11-29T03:49:33.057Z,9.10
2018-11-29T03:50:37.192Z,8.23
2018-11-29T03:51:41.351Z,8.43
2018-11-29T03:52:45.659Z,9.43
2018-11-29T03:53:49.754Z,8.70
2018-11-29T03:54:53.959Z,8.93
2018-11-29T03:55:57.990Z,7.92
2018-11-29T03:57:02.130Z,7.62
2018-11-29T03:58:06.517Z,8.00
2018-11-29T03:59:10.664Z,8.50
2018-11-29T04:00:17.620Z,8.50
2018-11-29T04:01:21.685Z,7.90
2018-11-29T04:02:25.829Z,8.23
2018-11-29T04:03:29.900Z,8.38
2018-11-29T04:04:33.967Z,8.00
2018-11-29T04:05:38.066Z,7.70
2018-11-29T04:06:42.113Z,8.18
2018-11-29T04:07:46.328Z,8.15
2018-11-29T04:08:50.471Z,8.13
2018-11-29T04:09:54.593Z,7.53
2018-11-29T04:10:58.629Z,6.90
2018-11-29T04:12:02.768Z,7.50
2018-11-29T04:13:06.872Z,8.33
2018-11-29T04:14:11.203Z,7.73
2018-11-29T04:15:15.785Z,8.28
2018-11-29T04:16:19.827Z,7.92
2018-11-29T04:17:24.006Z,8.13
2018-11-29T04:18:28.109Z,8.87
2018-11-29T04:19:32.267Z,8.30
2018-11-29T04:20:36.434Z,8.03
2018-11-29T04:21:40.568Z,8.90
2018-11-29T04:22:44.732Z,7.78
2018-11-29T04:23:48.791Z,8.63
2018-11-29T04:24:53.643Z,7.92
2018-11-29T04:25:57.652Z,8.05
2018-11-29T04:27:01.708Z,8.10
2018-11-29T04:28:05.863Z,7.92
2018-11-29T04:29:10.042Z,8.48
2018-11-29T04:30:15.786Z,8.10
2018-11-29T04:31:19.864Z,8.63
2018-11-29T04:32:24.017Z,7.95
2018-11-29T04:33:28.155Z,7.93
2018-11-29T04:34:32.283Z,8.43
2018-11-29T04:35:36.336Z,8.33
2018-11-29T04:36:40.509Z,8.00
2018-11-29T04:37:44.616Z,8.63
2018-11-29T04:38:48.786Z,8.15
2018-11-29T04:39:52.921Z,7.73
2018-11-29T04:40:57.101Z,8.23
2018-11-29T04:42:01.227Z,8.27
2018-11-29T04:43:05.478Z,8.43
2018-11-29T04:44:09.596Z,8.48
2018-11-29T04:45:14.740Z,7.60
2018-11-29T04:46:50.594Z,8.88
2018-11-29T04:47:54.682Z,8.33
2018-11-29T04:48:58.860Z,8.43
2018-11-29T04:50:03.008Z,7.60
2018-11-29T04:51:07.171Z,8.25
2018-11-29T04:52:11.802Z,8.43
2018-11-29T04:53:15.946Z,8.40
2018-11-29T04:54:20.050Z,8.50
2018-11-29T04:55:24.159Z,7.83
2018-11-29T04:56:28.341Z,8.83
2018-11-29T04:57:32.784Z,8.65
2018-11-29T04:58:36.860Z,8.10
2018-11-29T04:59:41.041Z,8.00
2018-11-29T05:00:45.295Z,8.95
2018-11-29T05:01:49.427Z,8.43
2018-11-29T05:02:53.513Z,9.05
2018-11-29T05:03:57.591Z,7.83
2018-11-29T05:05:01.771Z,8.33
2018-11-29T05:06:06.148Z,8.30
2018-11-29T05:07:10.172Z,8.23
2018-11-29T05:08:14.288Z,8.80
2018-11-29T05:09:18.423Z,8.47
2018-11-29T05:10:22.439Z,8.63
2018-11-29T05:11:26.725Z,8.67
2018-11-29T05:12:30.861Z,8.57
2018-11-29T05:13:34.977Z,8.30
2018-11-29T05:14:39.229Z,8.50
2018-11-29T05:15:43.520Z,8.77
2018-11-29T05:16:47.814Z,8.43
2018-11-29T05:17:51.922Z,8.80
2018-11-29T05:18:56.018Z,8.23
2018-11-29T05:20:00.205Z,8.30
2018-11-29T05:21:04.455Z,8.55
2018-11-29T05:22:08.558Z,7.90
2018-11-29T05:23:12.815Z,7.85
2018-11-29T05:24:16.946Z,8.13
2018-11-29T05:25:21.098Z,7.90
2018-11-29T05:26:25.196Z,8.58
2018-11-29T05:27:29.294Z,8.48
2018-11-29T05:28:33.445Z,8.40
2018-11-29T05:29:37.602Z,8.07
2018-11-29T05:30:41.737Z,8.03
2018-11-29T05:31:45.803Z,8.20
2018-11-29T05:32:49.896Z,7.87
2018-11-29T05:33:54.067Z,8.30
2018-11-29T05:34:58.101Z,8.35
2018-11-29T05:36:02.199Z,7.45
2018-11-29T05:37:06.640Z,8.30
2018-11-29T05:38:10.799Z,9.10
2018-11-29T05:39:14.842Z,8.50
2018-11-29T05:40:18.966Z,8.17
2018-11-29T05:41:23.090Z,7.87
2018-11-29T05:42:27.156Z,8.00
2018-11-29T05:43:31.250Z,8.13
2018-11-29T05:44:35.338Z,8.13
2018-11-29T05:45:39.445Z,8.37
2018-11-29T05:46:43.771Z,8.25
2018-11-29T05:47:47.963Z,8.25
2018-11-29T05:48:52.162Z,8.60
2018-11-29T05:49:56.260Z,7.97
2018-11-29T05:51:00.404Z,8.33
2018-11-29T05:52:04.750Z,8.15
2018-11-29T05:53:08.884Z,8.65
2018-11-29T05:54:13.031Z,9.10
2018-11-29T05:55:17.217Z,8.33
2018-11-29T05:56:21.335Z,8.93
2018-11-29T05:57:25.459Z,8.60
2018-11-29T05:58:29.550Z,9.10
2018-11-29T05:59:33.722Z,8.37
2018-11-29T06:00:37.858Z,8.20
2018-11-29T06:01:44.058Z,8.37
2018-11-29T06:02:48.164Z,8.90
2018-11-29T06:03:52.265Z,7.87
2018-11-29T06:04:56.378Z,8.57
2018-11-29T06:06:00.537Z,8.97
2018-11-29T06:07:04.697Z,8.50
2018-11-29T06:08:08.806Z,8.70
2018-11-29T06:09:12.987Z,8.67
2018-11-29T06:10:18.873Z,8.03
2018-11-29T06:11:22.910Z,7.90
2018-11-29T06:12:27.107Z,8.43
2018-11-29T06:13:31.320Z,8.95
2018-11-29T06:14:35.702Z,8.25
2018-11-29T06:15:39.769Z,7.95
2018-11-29T06:16:43.964Z,8.17
2018-11-29T06:17:48.107Z,8.65
2018-11-29T06:18:52.260Z,8.70
2018-11-29T06:19:56.386Z,8.07
2018-11-29T06:21:00.483Z,8.73
2018-11-29T06:22:04.599Z,8.60
2018-11-29T06:23:08.700Z,8.60
2018-11-29T06:24:13.664Z,8.57
2018-11-29T06:25:17.342Z,8.30
2018-11-29T06:26:21.507Z,8.27
2018-11-29T06:27:25.625Z,8.40
2018-11-29T06:28:29.648Z,8.25
2018-11-29T06:29:33.764Z,7.80
2018-11-29T06:30:37.887Z,8.40
2018-11-29T06:31:41.988Z,7.43
2018-11-29T06:32:46.501Z,7.53
2018-11-29T06:33:50.667Z,8.00
2018-11-29T06:34:55.211Z,9.13
2018-11-29T06:36:02.023Z,9.03
2018-11-29T06:37:03.609Z,8.98
2018-11-29T06:38:07.756Z,8.98
2018-11-29T06:39:11.835Z,8.90
2018-11-29T06:40:16.871Z,7.90
2018-11-29T06:41:21.013Z,8.63
2018-11-29T06:42:25.138Z,8.55
2018-11-29T06:43:29.256Z,8.23
2018-11-29T06:44:33.393Z,8.90
2018-11-29T06:45:37.492Z,8.67
2018-11-29T06:46:41.692Z,8.47
2018-11-29T06:47:46.058Z,8.30
2018-11-29T06:48:50.132Z,8.43
2018-11-29T06:49:54.258Z,8.37
2018-11-29T06:50:58.596Z,8.47
2018-11-29T06:52:02.870Z,8.40
2018-11-29T06:53:11.214Z,7.77
2018-11-29T06:54:15.443Z,7.87
2018-11-29T06:55:20.559Z,8.50
2018-11-29T06:56:24.698Z,7.85
2018-11-29T06:57:29.197Z,8.55
2018-11-29T06:58:33.326Z,8.90
2018-11-29T06:59:37.404Z,7.85
2018-11-29T07:00:41.556Z,8.05
2018-11-29T07:01:45.714Z,7.80
2018-11-29T07:02:49.895Z,7.67
2018-11-29T07:03:54.194Z,7.63
2018-11-29T07:04:58.402Z,7.40
2018-11-29T07:06:02.525Z,8.00
2018-11-29T07:07:06.784Z,7.70
2018-11-29T07:08:10.914Z,7.83
2018-11-29T07:09:15.076Z,7.53
2018-11-29T07:10:23.408Z,7.30
2018-11-29T07:11:27.482Z,8.03
2018-11-29T07:12:31.526Z,7.97
2018-11-29T07:13:35.636Z,7.33
2018-11-29T07:14:39.804Z,8.18
2018-11-29T07:15:43.843Z,7.67
2018-11-29T07:16:48.050Z,7.22
2018-11-29T07:17:52.247Z,7.50
2018-11-29T07:18:56.306Z,7.80
2018-11-29T07:20:00.391Z,7.97
2018-11-29T07:21:15.644Z,7.75
2018-11-29T07:22:19.687Z,7.40
2018-11-29T07:23:23.898Z,7.70
2018-11-29T07:24:28.020Z,7.43
2018-11-29T07:25:32.177Z,8.07
2018-11-29T07:26:36.258Z,8.07
2018-11-29T07:27:40.478Z,7.53
2018-11-29T07:28:44.653Z,8.33
2018-11-29T07:29:48.753Z,7.83
2018-11-29T07:30:52.874Z,7.47
2018-11-29T07:31:57.021Z,8.27
2018-11-29T07:33:01.116Z,7.83
2018-11-29T07:34:05.496Z,7.70
2018-11-29T07:35:10.806Z,8.95
2018-11-29T07:36:14.913Z,8.07
2018-11-29T07:37:19.139Z,7.80
2018-11-29T07:38:23.256Z,8.08
2018-11-29T07:39:27.383Z,8.43
2018-11-29T07:40:31.579Z,7.95
2018-11-29T07:41:35.848Z,8.20
2018-11-29T07:42:40.055Z,8.08
2018-11-29T07:43:44.095Z,8.35
2018-11-29T07:44:48.363Z,8.63
2018-11-29T07:45:52.519Z,8.30
2018-11-29T07:46:56.598Z,8.63
2018-11-29T07:48:00.808Z,8.53
2018-11-29T07:49:05.155Z,8.83
2018-11-29T07:50:12.842Z,8.73
2018-11-29T07:51:16.862Z,9.03
2018-11-29T07:52:21.027Z,8.50
2018-11-29T07:53:25.184Z,8.10
2018-11-29T07:54:29.359Z,9.28
2018-11-29T07:55:33.632Z,9.40
2018-11-29T07:56:37.704Z,9.10
2018-11-29T07:57:42.167Z,9.30
2018-11-29T07:58:51.460Z,9.33
2018-11-29T07:59:50.512Z,8.95
2018-11-29T08:00:54.743Z,9.53
2018-11-29T08:01:58.817Z,8.80
2018-11-29T08:03:03.023Z,9.45
2018-11-29T08:04:07.193Z,9.75
2018-11-29T08:05:12.590Z,9.85
2018-11-29T08:06:16.871Z,9.88
2018-11-29T08:07:21.052Z,9.63
2018-11-29T08:08:25.263Z,9.68
2018-11-29T08:09:29.491Z,9.83
2018-11-29T08:10:33.592Z,9.87
2018-11-29T08:11:37.742Z,8.83
2018-11-29T08:12:41.880Z,8.50
2018-11-29T08:13:45.973Z,8.73
2018-11-29T08:14:50.165Z,8.73
2018-11-29T08:15:54.260Z,8.67
2018-11-29T08:16:58.339Z,8.67
2018-11-29T08:18:02.474Z,9.23
2018-11-29T08:19:06.706Z,9.07
2018-11-29T08:20:17.819Z,9.60
2018-11-29T08:21:22.022Z,8.90
2018-11-29T08:22:26.188Z,9.98
2018-11-29T08:23:30.309Z,9.03
2018-11-29T08:24:34.404Z,9.88
2018-11-29T08:25:38.617Z,9.05
2018-11-29T08:26:42.762Z,9.20
2018-11-29T08:27:46.960Z,9.00
2018-11-29T08:28:51.159Z,9.65
2018-11-29T08:29:55.246Z,9.55
2018-11-29T08:30:59.280Z,9.37
2018-11-29T08:32:03.414Z,8.90
2018-11-29T08:33:07.472Z,9.13
2018-11-29T08:34:11.579Z,9.67
2018-11-29T08:35:16.043Z,8.68
2018-11-29T08:36:20.128Z,9.13
2018-11-29T08:37:24.286Z,8.77
2018-11-29T08:38:28.342Z,9.10
2018-11-29T08:39:32.483Z,9.40
2018-11-29T08:40:36.592Z,8.43
2018-11-29T08:41:40.716Z,8.93
2018-11-29T08:42:44.797Z,8.70
2018-11-29T08:43:48.900Z,9.07
2018-11-29T08:44:53.274Z,9.13
2018-11-29T08:45:57.442Z,8.93
2018-11-29T08:47:01.593Z,9.43
2018-11-29T08:48:06.585Z,9.40
2018-11-29T08:49:10.738Z,9.03
2018-11-29T08:50:15.302Z,8.80
2018-11-29T08:51:19.529Z,8.78
2018-11-29T08:52:23.600Z,9.23
2018-11-29T08:53:27.788Z,9.43
2018-11-29T08:54:31.968Z,8.75
2018-11-29T08:55:36.009Z,8.68
2018-11-29T08:56:40.123Z,8.90
2018-11-29T08:58:59.530Z,9.15
2018-11-29T09:00:05.708Z,10.38
2018-11-29T09:01:09.891Z,12.97
2018-11-29T09:02:14.013Z,10.90
2018-11-29T09:03:18.258Z,10.30
2018-11-29T09:04:22.382Z,10.07
2018-11-29T09:05:26.545Z,9.17
2018-11-29T09:06:30.748Z,9.50
2018-11-29T09:07:34.909Z,8.75
2018-11-29T09:08:38.996Z,8.45
2018-11-29T09:09:43.044Z,8.28
2018-11-29T09:10:47.156Z,8.93
2018-11-29T09:11:51.209Z,8.80
2018-11-29T09:12:55.406Z,8.93
2018-11-29T09:13:59.567Z,8.30
2018-11-29T09:15:03.815Z,9.10
2018-11-29T09:16:07.898Z,9.10
2018-11-29T09:17:11.968Z,8.17
2018-11-29T09:18:16.128Z,8.53
2018-11-29T09:19:20.274Z,8.13
2018-11-29T09:20:24.538Z,9.07
2018-11-29T09:21:28.758Z,8.57
2018-11-29T09:22:32.906Z,8.70
2018-11-29T09:23:37.156Z,8.93
2018-11-29T09:24:41.270Z,8.15
2018-11-29T09:25:45.376Z,8.45
2018-11-29T09:26:49.480Z,8.93
2018-11-29T09:27:53.632Z,8.97
2018-11-29T09:28:57.835Z,8.07
2018-11-29T09:30:02.046Z,9.20
2018-11-29T09:31:06.365Z,8.35
2018-11-29T09:32:10.487Z,8.73
2018-11-29T09:33:14.687Z,8.80
2018-11-29T09:34:18.967Z,8.98
2018-11-29T09:35:23.128Z,9.05
2018-11-29T09:36:27.258Z,8.98
2018-11-29T09:37:31.519Z,9.08
2018-11-29T09:38:35.847Z,9.10
2018-11-29T09:39:39.953Z,9.00
2018-11-29T09:40:44.243Z,8.93
2018-11-29T09:41:48.397Z,9.68
2018-11-29T09:42:52.640Z,9.23
2018-11-29T09:43:56.747Z,9.73
2018-11-29T09:45:00.928Z,9.97
2018-11-29T09:46:05.763Z,9.83
2018-11-29T09:47:09.934Z,9.50
2018-11-29T09:48:13.967Z,9.00
2018-11-29T09:49:18.052Z,9.10
2018-11-29T09:50:22.514Z,9.53
2018-11-29T09:51:26.632Z,9.87
2018-11-29T09:52:30.688Z,8.78
2018-11-29T09:53:34.841Z,9.57
2018-11-29T09:54:39.223Z,9.55
2018-11-29T09:55:43.380Z,9.47
2018-11-29T09:56:47.517Z,10.25
2018-11-29T09:57:51.767Z,9.33
2018-11-29T09:58:56.045Z,10.28
2018-11-29T10:00:00.113Z,9.75
2018-11-29T10:01:04.188Z,10.32
2018-11-29T10:02:08.297Z,9.58
2018-11-29T10:03:13.799Z,9.40
2018-11-29T10:04:17.979Z,10.03
2018-11-29T10:05:22.116Z,10.20
2018-11-29T10:06:26.242Z,9.70
2018-11-29T10:07:30.506Z,9.83
2018-11-29T10:08:34.681Z,10.00
2018-11-29T10:09:38.727Z,10.60
2018-11-29T10:10:42.935Z,10.40
2018-11-29T10:11:47.011Z,9.70
2018-11-29T10:12:51.088Z,9.60
2018-11-29T10:13:55.217Z,10.87
2018-11-29T10:14:59.323Z,9.77
2018-11-29T10:16:03.451Z,10.00
2018-11-29T10:17:07.640Z,8.93
2018-11-29T10:18:11.938Z,10.33
2018-11-29T10:19:16.064Z,10.68
2018-11-29T10:20:20.195Z,10.47
2018-11-29T10:21:24.319Z,10.43
2018-11-29T10:22:28.356Z,9.80
2018-11-29T10:23:32.523Z,9.60
2018-11-29T10:24:36.612Z,9.95
2018-11-29T10:25:41.543Z,10.03
2018-11-29T10:26:46.380Z,9.73
2018-11-29T10:27:52.341Z,9.93
2018-11-29T10:28:56.406Z,10.80
2018-11-29T10:30:00.994Z,10.63
2018-11-29T10:31:06.290Z,10.87
2018-11-29T10:32:10.544Z,10.72
2018-11-29T10:33:14.734Z,9.57
2018-11-29T10:34:18.814Z,10.98
2018-11-29T10:35:23.397Z,10.30
2018-11-29T10:36:27.489Z,8.87
2018-11-29T10:37:31.876Z,10.13
2018-11-29T10:38:36.098Z,10.37
2018-11-29T10:39:40.625Z,10.47
2018-11-29T10:40:45.142Z,10.15
2018-11-29T10:41:49.304Z,11.20
2018-11-29T10:42:53.587Z,10.05
2018-11-29T10:43:57.642Z,10.58
2018-11-29T10:45:01.762Z,10.50
2018-11-29T10:46:06.543Z,10.23
2018-11-29T10:47:10.770Z,10.60
2018-11-29T10:48:18.243Z,10.40
2018-11-29T10:49:22.423Z,10.57
2018-11-29T10:50:26.702Z,9.93
2018-11-29T10:51:30.784Z,10.53
2018-11-29T10:52:34.841Z,10.60
2018-11-29T10:53:39.002Z,9.93
2018-11-29T10:54:43.175Z,11.27
2018-11-29T10:55:47.340Z,10.27
2018-11-29T10:56:51.424Z,10.00
2018-11-29T10:57:55.628Z,10.00
2018-11-29T10:58:59.789Z,10.20
2018-11-29T11:00:05.332Z,9.97
2018-11-29T11:01:14.947Z,10.03
2018-11-29T11:02:24.333Z,9.10
2018-11-29T11:03:28.723Z,9.33
2018-11-29T11:04:32.867Z,10.03
2018-11-29T11:05:37.534Z,10.10
2018-11-29T11:06:42.073Z,10.20
2018-11-29T11:07:46.212Z,9.57
2018-11-29T11:08:50.334Z,10.03
2018-11-29T11:09:54.601Z,9.70
2018-11-29T11:10:59.453Z,10.80
2018-11-29T11:12:03.554Z,9.77
2018-11-29T11:13:07.733Z,10.37
2018-11-29T11:14:12.028Z,10.23
2018-11-29T11:15:16.173Z,10.80
2018-11-29T11:16:20.238Z,10.47
2018-11-29T11:17:24.336Z,11.23
2018-11-29T11:18:28.540Z,10.30
2018-11-29T11:19:32.742Z,10.33
2018-11-29T11:20:36.994Z,10.25
2018-11-29T11:21:41.175Z,10.08
2018-11-29T11:22:45.292Z,10.10
2018-11-29T11:23:49.442Z,10.70
2018-11-29T11:24:53.541Z,10.45
2018-11-29T11:25:57.842Z,9.90
2018-11-29T11:27:01.977Z,10.75
2018-11-29T11:28:07.692Z,10.10
2018-11-29T11:29:11.802Z,10.48
2018-11-29T11:30:17.962Z,11.10
2018-11-29T11:31:21.991Z,12.00
2018-11-29T11:32:26.273Z,12.53
2018-11-29T11:33:30.386Z,11.23
2018-11-29T11:34:34.479Z,11.27
2018-11-29T11:35:38.694Z,10.93
2018-11-29T11:36:42.907Z,11.20
2018-11-29T11:37:47.029Z,11.22
2018-11-29T11:38:51.102Z,11.23
2018-11-29T11:39:55.615Z,11.33
2018-11-29T11:40:59.821Z,10.73
2018-11-29T11:42:03.938Z,11.43
2018-11-29T11:43:08.398Z,11.07
2018-11-29T11:44:12.566Z,10.68
2018-11-29T11:45:20.362Z,11.12
2018-11-29T11:46:24.480Z,10.50
2018-11-29T11:47:28.538Z,10.38
2018-11-29T11:48:32.659Z,10.53
2018-11-29T11:49:36.830Z,11.10
2018-11-29T11:50:40.937Z,10.88
2018-11-29T11:51:45.102Z,11.12
2018-11-29T11:52:49.628Z,10.63
2018-11-29T11:53:53.732Z,10.37
2018-11-29T11:54:57.881Z,11.05
2018-11-29T11:56:02.009Z,11.70
2018-11-29T11:57:06.326Z,11.13
2018-11-29T11:58:10.467Z,11.27
2018-11-29T11:59:14.653Z,11.75
2018-11-29T12:00:24.791Z,11.70
2018-11-29T12:01:29.038Z,11.33
2018-11-29T12:02:33.263Z,11.12
2018-11-29T12:03:37.427Z,10.60
2018-11-29T12:04:41.609Z,10.93
2018-11-29T12:05:45.748Z,10.75
2018-11-29T12:06:49.872Z,11.28
2018-11-29T12:07:54.095Z,10.45
2018-11-29T12:08:58.196Z,10.82
2018-11-29T12:10:02.455Z,10.78
2018-11-29T12:11:06.705Z,10.75
2018-11-29T12:12:10.871Z,11.12
2018-11-29T12:13:15.009Z,10.40
2018-11-29T12:14:19.216Z,12.33
2018-11-29T12:15:23.398Z,12.23
2018-11-29T12:16:27.657Z,12.27
2018-11-29T12:17:31.964Z,14.07
2018-11-29T12:18:36.123Z,14.03
2018-11-29T12:19:41.068Z,12.93
2018-11-29T12:20:44.449Z,11.77
2018-11-29T12:21:48.608Z,11.33
2018-11-29T12:22:52.845Z,11.37
2018-11-29T12:23:56.930Z,10.73
2018-11-29T12:25:01.070Z,10.37
2018-11-29T12:26:05.456Z,10.10
2018-11-29T12:27:09.756Z,9.63
2018-11-29T12:28:15.027Z,9.53
2018-11-29T12:29:19.162Z,9.80
2018-11-29T12:30:26.177Z,9.87
2018-11-29T12:31:30.355Z,9.58
2018-11-29T12:32:34.699Z,9.53
2018-11-29T12:33:38.818Z,9.73
2018-11-29T12:34:42.987Z,10.30
2018-11-29T12:35:47.085Z,10.45
2018-11-29T12:36:51.294Z,10.82
2018-11-29T12:37:55.425Z,10.07
2018-11-29T12:38:59.632Z,9.23
2018-11-29T12:40:03.951Z,9.70
2018-11-29T12:41:08.072Z,9.77
2018-11-29T12:42:12.134Z,9.40
2018-11-29T12:43:16.284Z,9.60
2018-11-29T12:44:20.403Z,8.80
2018-11-29T12:45:24.554Z,8.97
2018-11-29T12:46:28.726Z,9.57
2018-11-29T12:47:32.836Z,8.35
2018-11-29T12:48:37.053Z,9.33
2018-11-29T12:49:41.112Z,9.07
2018-11-29T12:50:45.260Z,8.87
2018-11-29T12:51:49.455Z,9.47
2018-11-29T12:52:53.638Z,9.60
2018-11-29T12:53:57.789Z,9.33
2018-11-29T12:55:02.022Z,8.60
2018-11-29T12:56:06.258Z,9.55
2018-11-29T12:57:10.545Z,8.73
2018-11-29T12:58:14.677Z,9.25
2018-11-29T12:59:18.919Z,9.73
2018-11-29T13:00:24.050Z,9.75
2018-11-29T13:01:30.577Z,9.10
2018-11-29T13:02:34.722Z,8.97
2018-11-29T13:03:38.822Z,8.80
2018-11-29T13:04:42.924Z,9.00
2018-11-29T13:05:47.060Z,8.93
2018-11-29T13:06:51.187Z,9.57
2018-11-29T13:07:55.446Z,9.10
2018-11-29T13:09:02.055Z,9.60
2018-11-29T13:10:07.142Z,9.47
2018-11-29T13:11:11.296Z,9.67
2018-11-29T13:12:15.367Z,8.73
2018-11-29T13:13:19.445Z,9.77
2018-11-29T13:14:23.591Z,9.17
2018-11-29T13:15:32.072Z,9.43
2018-11-29T13:16:36.143Z,10.00
2018-11-29T13:17:40.207Z,10.18
2018-11-29T13:18:44.460Z,9.95
2018-11-29T13:19:48.646Z,10.05
2018-11-29T13:21:00.459Z,9.88
2018-11-29T13:22:04.637Z,9.90
2018-11-29T13:23:08.766Z,10.27
2018-11-29T13:24:12.916Z,10.40
2018-11-29T13:25:18.002Z,10.25
2018-11-29T13:26:22.138Z,9.97
2018-11-29T13:27:26.226Z,10.33
2018-11-29T13:28:30.554Z,10.50
2018-11-29T13:29:34.634Z,9.73
2018-11-29T13:30:38.810Z,9.73
2018-11-29T13:31:49.837Z,9.43
2018-11-29T13:32:55.099Z,9.43
2018-11-29T13:33:59.196Z,9.65
2018-11-29T13:35:03.235Z,10.23
2018-11-29T13:36:07.387Z,10.15
2018-11-29T13:37:11.736Z,9.60
2018-11-29T13:38:16.645Z,9.70
2018-11-29T13:39:20.813Z,10.08
2018-11-29T13:40:25.026Z,9.95
2018-11-29T13:41:29.126Z,9.70
2018-11-29T13:42:33.368Z,9.30
2018-11-29T13:43:37.545Z,10.13
2018-11-29T13:44:41.769Z,9.70
2018-11-29T13:45:45.890Z,9.65
2018-11-29T13:46:49.995Z,10.17
2018-11-29T13:47:54.272Z,9.93
2018-11-29T13:48:58.364Z,10.13
2018-11-29T13:50:02.434Z,9.78
2018-11-29T13:51:06.632Z,9.97
2018-11-29T13:52:10.942Z,10.13
2018-11-29T13:53:15.054Z,10.60
2018-11-29T13:54:19.165Z,10.37
2018-11-29T13:55:23.315Z,10.00
2018-11-29T13:56:27.484Z,9.60
2018-11-29T13:57:31.814Z,9.60
2018-11-29T13:58:35.842Z,9.50
2018-11-29T13:59:40.059Z,9.75
2018-11-29T14:00:44.208Z,10.03
2018-11-29T14:01:48.361Z,9.60
2018-11-29T14:02:56.860Z,10.15
2018-11-29T14:04:01.017Z,9.58
2018-11-29T14:05:05.744Z,10.58
2018-11-29T14:06:09.878Z,10.27
2018-11-29T14:07:14.226Z,9.70
2018-11-29T14:08:18.519Z,9.53
2018-11-29T14:09:22.693Z,9.43
2018-11-29T14:10:26.992Z,9.20
2018-11-29T14:11:31.191Z,9.43
2018-11-29T14:12:35.512Z,9.75